Time;durP1;ratioP1;P1;durP2;ratioP2;P2;SDS_P1;SDS_P2;PMS_P1;PMS_P2;Temp;Humidity;BMP_temperature;BMP_pressure;BME280_temperature;BME280_humidity;BME280_pressure;Samples;Min_cycle;Max_cycle;Signal;HPM_P1;HPM_P2
2022/07/30 02:38:37;;;;;;;;;;;12.30;60.30;;;;;;5081691;28;19927;-65
2022/07/30 02:41:03;;;;;;;;;;;12.30;60.70;;;;;;5085675;28;19916;-64
2022/07/30 02:43:30;;;;;;;;;;;12.40;61.60;;;;;;5090439;28;20358;-65
2022/07/30 02:45:56;;;;;;;;;;;12.50;61.30;;;;;;5085793;28;20384;-64
2022/07/30 02:48:23;;;;;;;;;;;12.60;60.60;;;;;;5085692;28;20374;-64
2022/07/30 02:50:50;;;;;;;;;;;12.60;61.10;;;;;;5092064;28;19962;-65
2022/07/30 02:53:17;;;;;;;;;;;12.60;60.90;;;;;;5088534;28;19919;-64
2022/07/30 02:55:43;;;;;;;;;;;12.60;61.50;;;;;;5090480;28;20258;-66
2022/07/30 02:58:10;;;;;;;;;;;12.70;60.30;;;;;;5084346;28;19947;-65
2022/07/30 03:00:36;;;;;;;;;;;12.70;59.60;;;;;;5105534;27;19915;-65
2022/07/30 03:03:05;;;;;;;;;;;12.70;59.80;;;;;;5081934;28;19913;-66
2022/07/30 03:05:32;;;;;;;;;;;12.70;59.60;;;;;;5089558;28;19908;-65
2022/07/30 03:07:59;;;;;;;;;;;12.70;59.70;;;;;;5091400;28;20304;-67
2022/07/30 03:10:25;;;;;;;;;;;12.70;60.10;;;;;;5091216;28;20293;-65
2022/07/30 03:15:27;;;;;;;;;;;12.70;59.90;;;;;;3259054;26;20400;-64
2022/07/30 03:17:54;;;;;;;;;;;12.70;60.60;;;;;;5041304;28;20070;-66
2022/07/30 03:20:22;;;;;;;;;;;12.80;60.00;;;;;;5026520;28;19912;-65
2022/07/30 03:22:50;;;;;;;;;;;12.80;60.40;;;;;;5049951;28;19924;-66
2022/07/30 03:25:18;;;;;;;;;;;12.80;60.00;;;;;;5054870;28;19915;-66
2022/07/30 03:27:45;;;;;;;;;;;12.80;60.80;;;;;;5068773;28;19947;-63
2022/07/30 03:30:12;;;;;;;;;;;12.80;60.00;;;;;;5053340;28;20399;-64
2022/07/30 03:32:38;;;;;;;;;;;12.80;59.90;;;;;;5062073;28;19916;-64
2022/07/30 03:35:05;;;;;;;;;;;12.80;59.60;;;;;;5047706;28;19940;-64
2022/07/30 03:37:32;;;;;;;;;;;12.80;59.10;;;;;;5064826;28;19915;-64
2022/07/30 03:39:59;;;;;;;;;;;12.80;58.70;;;;;;5072408;28;19950;-64
2022/07/30 03:42:25;;;;;;;;;;;12.90;58.40;;;;;;5069334;28;19939;-64
2022/07/30 03:44:52;;;;;;;;;;;12.90;58.60;;;;;;5072200;28;19965;-64
2022/07/30 03:47:18;;;;;;;;;;;12.90;58.60;;;;;;5068605;28;19908;-64
2022/07/30 03:49:45;;;;;;;;;;;13.00;58.60;;;;;;5073184;28;20011;-64
2022/07/30 03:52:11;;;;;;;;;;;13.00;58.70;;;;;;5073290;28;19904;-64
2022/07/30 03:54:38;;;;;;;;;;;13.00;58.80;;;;;;5066852;28;19924;-64
2022/07/30 03:57:05;;;;;;;;;;;12.90;58.70;;;;;;5030162;28;19913;-66
2022/07/30 03:59:31;;;;;;;;;;;13.00;59.00;;;;;;5030848;28;20286;-66
2022/07/30 04:02:01;;;;;;;;;;;12.90;59.10;;;;;;5023609;28;19982;-66
2022/07/30 04:04:29;;;;;;;;;;;13.00;58.40;;;;;;5050232;28;19935;-67
2022/07/30 04:06:56;;;;;;;;;;;13.00;59.50;;;;;;5050847;28;19912;-66
2022/07/30 04:09:23;;;;;;;;;;;13.10;59.40;;;;;;5031797;28;19908;-65
2022/07/30 04:11:49;;;;;;;;;;;13.10;59.30;;;;;;5053013;28;19980;-66
2022/07/30 04:14:16;;;;;;;;;;;13.10;59.00;;;;;;5055399;28;19908;-66
2022/07/30 04:16:43;;;;;;;;;;;13.00;58.80;;;;;;5047083;28;19950;-66
2022/07/30 04:19:29;;;;;;;;;;;13.00;58.90;;;;;;5056046;28;19909;-65
2022/07/30 04:21:56;;;;;;;;;;;13.00;58.30;;;;;;5067995;28;19977;-65
2022/07/30 04:24:23;;;;;;;;;;;13.10;57.50;;;;;;5057206;28;19928;-64
2022/07/30 04:26:49;;;;;;;;;;;13.10;57.80;;;;;;5051695;28;20344;-64
2022/07/30 04:29:16;;;;;;;;;;;13.10;57.70;;;;;;5069890;28;19911;-64
2022/07/30 04:31:42;;;;;;;;;;;13.10;57.50;;;;;;5043337;28;19947;-64
2022/07/30 04:34:12;;;;;;;;;;;13.10;57.40;;;;;;5069668;28;20003;-65
2022/07/30 04:36:39;;;;;;;;;;;13.10;57.70;;;;;;5069972;28;19995;-65
2022/07/30 04:39:05;;;;;;;;;;;13.10;57.80;;;;;;5070081;28;19917;-63
2022/07/30 04:41:32;;;;;;;;;;;13.00;57.70;;;;;;5052882;28;19913;-64
2022/07/30 04:43:58;;;;;;;;;;;13.00;57.20;;;;;;5048789;28;20317;-64
2022/07/30 04:46:25;;;;;;;;;;;13.10;56.90;;;;;;5062718;28;21099;-64
2022/07/30 04:48:51;;;;;;;;;;;13.10;57.20;;;;;;5062288;28;19920;-64
2022/07/30 04:51:38;;;;;;;;;;;13.10;57.00;;;;;;5062734;28;19912;-64
2022/07/30 04:54:05;;;;;;;;;;;13.10;56.90;;;;;;5055946;28;19912;-64
2022/07/30 04:56:31;;;;;;;;;;;13.20;56.80;;;;;;5051426;28;19904;-64
2022/07/30 04:58:58;;;;;;;;;;;13.20;56.90;;;;;;5050346;28;19923;-65
2022/07/30 05:01:25;;;;;;;;;;;13.20;57.00;;;;;;5051276;28;19914;-64
2022/07/30 05:03:51;;;;;;;;;;;13.20;57.10;;;;;;5069529;28;19904;-64
2022/07/30 05:06:18;;;;;;;;;;;13.20;56.90;;;;;;5069772;28;19912;-64
2022/07/30 05:08:45;;;;;;;;;;;13.20;57.10;;;;;;5065098;28;19924;-64
2022/07/30 05:11:15;;;;;;;;;;;13.10;58.30;;;;;;5044476;28;20049;-64
2022/07/30 05:13:44;;;;;;;;;;;13.20;56.50;;;;;;5041670;28;19908;-65
2022/07/30 05:16:11;;;;;;;;;;;13.20;57.10;;;;;;5069193;28;20285;-64
2022/07/30 05:18:38;;;;;;;;;;;13.10;57.00;;;;;;5069294;28;20261;-64
2022/07/30 05:21:04;;;;;;;;;;;13.10;56.90;;;;;;5059387;28;20262;-64
2022/07/30 05:23:31;;;;;;;;;;;13.10;57.30;;;;;;5069490;28;19966;-64
2022/07/30 05:25:57;;;;;;;;;;;13.20;57.70;;;;;;5065175;28;19947;-64
2022/07/30 05:28:27;;;;;;;;;;;13.20;56.30;;;;;;5037037;28;19916;-64
2022/07/30 05:30:53;;;;;;;;;;;13.20;56.10;;;;;;5063212;28;19935;-64
2022/07/30 05:33:20;;;;;;;;;;;13.20;56.10;;;;;;5060535;28;19917;-64
2022/07/30 05:35:47;;;;;;;;;;;13.20;56.30;;;;;;5068827;28;20361;-64
2022/07/30 05:38:14;;;;;;;;;;;13.20;55.60;;;;;;5069161;28;19924;-64
2022/07/30 05:40:40;;;;;;;;;;;13.20;55.50;;;;;;5054716;28;19938;-64
2022/07/30 05:43:07;;;;;;;;;;;13.20;56.10;;;;;;5059459;28;19920;-65
2022/07/30 05:45:33;;;;;;;;;;;13.20;56.30;;;;;;5062812;28;19947;-63
2022/07/30 05:48:00;;;;;;;;;;;13.10;56.80;;;;;;5069132;28;20019;-64
2022/07/30 05:50:26;;;;;;;;;;;13.20;56.50;;;;;;5069136;28;20327;-64
2022/07/30 05:52:54;;;;;;;;;;;13.20;57.00;;;;;;5064139;28;19930;-64
2022/07/30 05:55:21;;;;;;;;;;;13.20;57.20;;;;;;5060796;28;19919;-64
2022/07/30 05:57:47;;;;;;;;;;;13.20;57.30;;;;;;5052986;28;20018;-64
2022/07/30 06:00:14;;;;;;;;;;;13.20;57.20;;;;;;5072680;28;19958;-65
2022/07/30 06:02:41;;;;;;;;;;;13.20;57.50;;;;;;5072228;28;19948;-64
2022/07/30 06:05:08;;;;;;;;;;;13.20;57.70;;;;;;5072877;28;19915;-69
2022/07/30 06:07:34;;;;;;;;;;;13.20;57.60;;;;;;5068857;28;19951;-72
2022/07/30 06:10:01;;;;;;;;;;;13.20;57.90;;;;;;5060401;28;19912;-65
2022/07/30 06:12:28;;;;;;;;;;;13.20;58.00;;;;;;5072621;28;19908;-64
2022/07/30 06:14:54;;;;;;;;;;;13.20;57.70;;;;;;5064971;28;19921;-64
2022/07/30 06:17:21;;;;;;;;;;;13.20;57.80;;;;;;5053016;28;19909;-64
2022/07/30 06:19:47;;;;;;;;;;;13.20;57.60;;;;;;5049685;28;20340;-65
2022/07/30 06:22:14;;;;;;;;;;;13.20;57.60;;;;;;5050864;28;19959;-65
2022/07/30 06:24:41;;;;;;;;;;;13.30;60.50;;;;;;5052006;28;20007;-65
2022/07/30 06:27:07;;;;;;;;;;;13.30;62.00;;;;;;5052633;28;19927;-65
2022/07/30 06:29:34;;;;;;;;;;;13.30;63.80;;;;;;5049000;28;19912;-64
2022/07/30 06:32:00;;;;;;;;;;;13.30;64.40;;;;;;5027518;28;19913;-64
2022/07/30 06:34:27;;;;;;;;;;;13.30;65.50;;;;;;5030224;28;19913;-64
2022/07/30 06:36:53;;;;;;;;;;;13.30;66.00;;;;;;5047051;28;19912;-64
2022/07/30 06:39:20;;;;;;;;;;;13.20;65.50;;;;;;5044573;28;19912;-64
2022/07/30 06:41:47;;;;;;;;;;;13.20;65.70;;;;;;5048974;28;19917;-64
2022/07/30 06:44:13;;;;;;;;;;;13.20;65.40;;;;;;5049872;28;19908;-64
2022/07/30 06:46:40;;;;;;;;;;;13.20;65.40;;;;;;5051955;28;19915;-65
2022/07/30 06:49:06;;;;;;;;;;;13.20;65.30;;;;;;5052509;28;19908;-66
2022/07/30 06:51:33;;;;;;;;;;;13.10;65.30;;;;;;5047871;28;19955;-64
2022/07/30 06:54:00;;;;;;;;;;;13.10;65.60;;;;;;5040522;28;19916;-64
2022/07/30 06:56:26;;;;;;;;;;;13.10;66.00;;;;;;5050081;28;19927;-64
2022/07/30 06:58:53;;;;;;;;;;;13.10;66.10;;;;;;5051729;28;20262;-64
2022/07/30 07:01:22;;;;;;;;;;;13.10;65.80;;;;;;5049908;28;19908;-65
2022/07/30 07:03:48;;;;;;;;;;;13.10;66.10;;;;;;5036183;28;19962;-64
2022/07/30 07:06:15;;;;;;;;;;;13.10;66.30;;;;;;5052097;28;19919;-65
2022/07/30 07:08:41;;;;;;;;;;;13.10;66.60;;;;;;5047749;28;19913;-64
2022/07/30 07:11:08;;;;;;;;;;;13.00;66.70;;;;;;5051912;28;19966;-65
2022/07/30 07:13:34;;;;;;;;;;;13.00;66.70;;;;;;5047861;28;19913;-64
2022/07/30 07:16:01;;;;;;;;;;;12.90;67.10;;;;;;5068300;28;20106;-65
2022/07/30 07:18:28;;;;;;;;;;;12.90;66.90;;;;;;5071293;28;19959;-65
2022/07/30 07:20:54;;;;;;;;;;;12.90;67.00;;;;;;5070573;28;19927;-65
2022/07/30 07:23:21;;;;;;;;;;;12.80;66.90;;;;;;5068435;28;20054;-64
2022/07/30 07:25:47;;;;;;;;;;;12.80;66.90;;;;;;5068392;28;19905;-65
2022/07/30 07:28:14;;;;;;;;;;;12.80;66.90;;;;;;5060556;28;19920;-65
2022/07/30 07:30:41;;;;;;;;;;;12.80;67.20;;;;;;5069770;28;19962;-66
2022/07/30 07:33:08;;;;;;;;;;;12.70;67.00;;;;;;5057154;28;20368;-66
2022/07/30 07:35:35;;;;;;;;;;;12.70;67.10;;;;;;5066754;28;20269;-66
2022/07/30 07:38:01;;;;;;;;;;;12.70;67.20;;;;;;5066263;28;19915;-64
2022/07/30 07:40:28;;;;;;;;;;;12.70;67.50;;;;;;5071137;28;19905;-64
2022/07/30 07:42:54;;;;;;;;;;;12.70;67.90;;;;;;5069073;28;20330;-64
2022/07/30 07:45:21;;;;;;;;;;;12.60;68.40;;;;;;5059594;28;20035;-64
2022/07/30 07:47:48;;;;;;;;;;;12.60;68.20;;;;;;5063346;28;19962;-63
2022/07/30 07:50:16;;;;;;;;;;;12.60;68.30;;;;;;5062266;28;19908;-63
2022/07/30 07:52:42;;;;;;;;;;;12.60;68.50;;;;;;5059971;28;19909;-63
2022/07/30 07:55:09;;;;;;;;;;;12.60;68.90;;;;;;5052022;28;19995;-64
2022/07/30 07:57:42;;;;;;;;;;;12.50;69.20;;;;;;5051901;28;19923;-64
2022/07/30 08:00:09;;;;;;;;;;;12.50;69.80;;;;;;5054271;28;20353;-64
2022/07/30 08:02:36;;;;;;;;;;;12.40;70.30;;;;;;5052651;28;19920;-64
2022/07/30 08:05:05;;;;;;;;;;;12.40;70.30;;;;;;5055763;28;20023;-63
2022/07/30 08:07:32;;;;;;;;;;;12.40;70.70;;;;;;5051654;28;20320;-64
2022/07/30 08:09:59;;;;;;;;;;;12.30;70.70;;;;;;5055787;28;19916;-64
2022/07/30 08:12:26;;;;;;;;;;;12.30;71.10;;;;;;5059000;28;19919;-63
2022/07/30 08:14:52;;;;;;;;;;;12.30;71.10;;;;;;5050749;28;20566;-64
2022/07/30 08:17:19;;;;;;;;;;;12.30;71.10;;;;;;5051307;28;19916;-64
2022/07/30 08:19:46;;;;;;;;;;;12.30;71.00;;;;;;5031614;28;19966;-64
2022/07/30 08:22:12;;;;;;;;;;;12.30;70.90;;;;;;5051627;28;19917;-63
2022/07/30 08:24:39;;;;;;;;;;;12.30;71.20;;;;;;5054648;28;19912;-63
2022/07/30 08:27:05;;;;;;;;;;;12.30;71.10;;;;;;5052988;28;19909;-63
2022/07/30 08:29:32;;;;;;;;;;;12.30;71.10;;;;;;5057122;28;19951;-63
2022/07/30 08:31:58;;;;;;;;;;;12.30;71.20;;;;;;5068584;28;19974;-63
2022/07/30 08:34:25;;;;;;;;;;;12.30;71.50;;;;;;5056019;28;20278;-65
2022/07/30 08:36:51;;;;;;;;;;;12.30;71.40;;;;;;5062580;28;20449;-65
2022/07/30 08:39:18;;;;;;;;;;;12.20;71.60;;;;;;5053701;28;19931;-64
2022/07/30 08:41:45;;;;;;;;;;;12.20;71.80;;;;;;5058358;28;19931;-63
2022/07/30 08:44:11;;;;;;;;;;;12.20;72.00;;;;;;5047930;28;19912;-64
2022/07/30 08:46:41;;;;;;;;;;;12.20;72.70;;;;;;5050083;28;19916;-63
2022/07/30 08:49:09;;;;;;;;;;;12.20;72.80;;;;;;5063979;28;19915;-63
2022/07/30 08:51:35;;;;;;;;;;;12.10;72.90;;;;;;5049095;28;19912;-63
2022/07/30 08:54:02;;;;;;;;;;;12.10;73.30;;;;;;5048967;28;19924;-64
2022/07/30 08:56:29;;;;;;;;;;;12.10;73.50;;;;;;5049614;28;20309;-64
2022/07/30 08:58:55;;;;;;;;;;;12.10;73.70;;;;;;5048716;28;20370;-64
2022/07/30 09:01:22;;;;;;;;;;;12.00;73.90;;;;;;5031548;28;19916;-65
2022/07/30 09:03:48;;;;;;;;;;;12.00;74.20;;;;;;5049644;28;19920;-65
2022/07/30 09:06:15;;;;;;;;;;;12.00;74.30;;;;;;5065171;28;20119;-65
2022/07/30 09:08:41;;;;;;;;;;;12.00;74.30;;;;;;5057055;28;19912;-65
2022/07/30 09:11:08;;;;;;;;;;;12.00;74.30;;;;;;5063565;28;19916;-65
2022/07/30 09:13:36;;;;;;;;;;;12.00;74.10;;;;;;5069583;28;19939;-65
2022/07/30 09:16:03;;;;;;;;;;;12.00;74.50;;;;;;5069302;28;19916;-65
2022/07/30 09:18:31;;;;;;;;;;;12.00;74.20;;;;;;5069237;28;20740;-65
2022/07/30 09:21:01;;;;;;;;;;;11.90;74.50;;;;;;5064119;28;19974;-65
2022/07/30 09:23:27;;;;;;;;;;;11.90;74.50;;;;;;5066066;28;19916;-65
2022/07/30 09:25:55;;;;;;;;;;;11.90;74.50;;;;;;5051246;28;19966;-65
2022/07/30 09:28:32;;;;;;;;;;;11.90;74.40;;;;;;5069545;28;19908;-65
2022/07/30 09:30:58;;;;;;;;;;;11.90;74.50;;;;;;5069062;28;19915;-65
2022/07/30 09:33:43;;;;;;;;;;;11.80;74.80;;;;;;5067225;28;19912;-65
2022/07/30 09:36:14;;;;;;;;;;;11.90;74.70;;;;;;5069549;28;20366;-67
2022/07/30 09:38:45;;;;;;;;;;;11.80;75.00;;;;;;5070460;28;19920;-66
2022/07/30 09:41:11;;;;;;;;;;;11.80;74.70;;;;;;5072100;28;19912;-66
2022/07/30 09:43:51;;;;;;;;;;;11.80;74.90;;;;;;5060953;28;19971;-67
2022/07/30 09:46:17;;;;;;;;;;;11.80;75.00;;;;;;5047853;28;19939;-64
2022/07/30 09:48:47;;;;;;;;;;;11.80;74.90;;;;;;5073049;28;19908;-65
2022/07/30 09:51:13;;;;;;;;;;;11.80;74.70;;;;;;5073386;28;20038;-66
2022/07/30 09:53:55;;;;;;;;;;;11.80;75.00;;;;;;5051209;28;19909;-66
2022/07/30 09:56:22;;;;;;;;;;;11.80;75.20;;;;;;5067856;28;19912;-66
2022/07/30 09:58:49;;;;;;;;;;;11.80;75.30;;;;;;5072375;28;20704;-66
2022/07/30 10:01:15;;;;;;;;;;;11.70;75.40;;;;;;5072827;28;20281;-67
2022/07/30 10:03:42;;;;;;;;;;;11.70;75.50;;;;;;5072489;28;20393;-67
2022/07/30 10:06:09;;;;;;;;;;;11.70;75.50;;;;;;5068998;28;19964;-67
2022/07/30 10:08:45;;;;;;;;;;;11.70;76.00;;;;;;5063697;28;20369;-66
2022/07/30 10:11:16;;;;;;;;;;;11.70;76.00;;;;;;5072343;28;19930;-67
2022/07/30 10:13:43;;;;;;;;;;;11.70;76.00;;;;;;5064694;28;20421;-66
2022/07/30 10:16:09;;;;;;;;;;;11.70;76.20;;;;;;5066621;28;20003;-63
2022/07/30 10:18:36;;;;;;;;;;;11.70;76.60;;;;;;5072282;28;19961;-65
2022/07/30 10:21:03;;;;;;;;;;;11.70;76.70;;;;;;5072007;28;19911;-67
2022/07/30 10:23:31;;;;;;;;;;;11.70;77.00;;;;;;5068036;28;20036;-65
2022/07/30 10:25:58;;;;;;;;;;;11.70;76.90;;;;;;5072454;28;19995;-66
2022/07/30 10:28:25;;;;;;;;;;;11.70;77.10;;;;;;5072002;28;19904;-65
2022/07/30 10:30:52;;;;;;;;;;;11.70;77.20;;;;;;5072094;28;19947;-65
2022/07/30 10:33:19;;;;;;;;;;;11.70;77.50;;;;;;5072056;28;20007;-68
2022/07/30 10:35:46;;;;;;;;;;;11.70;77.60;;;;;;5050717;28;19920;-68
2022/07/30 10:38:12;;;;;;;;;;;11.60;77.80;;;;;;5072080;28;19987;-69
2022/07/30 10:41:00;;;;;;;;;;;11.60;77.90;;;;;;5072198;28;19958;-67
2022/07/30 10:43:56;;;;;;;;;;;11.60;78.10;;;;;;5050845;28;19924;-66
2022/07/30 10:46:25;;;;;;;;;;;11.50;78.30;;;;;;5050812;28;19908;-66
2022/07/30 10:48:54;;;;;;;;;;;11.50;78.50;;;;;;5061852;28;19909;-66
2022/07/30 10:51:21;;;;;;;;;;;11.50;78.60;;;;;;5046120;28;19912;-65
2022/07/30 10:53:48;;;;;;;;;;;11.50;78.70;;;;;;5065982;28;20369;-65
2022/07/30 10:56:17;;;;;;;;;;;11.50;78.70;;;;;;5069216;28;19996;-66
2022/07/30 10:58:56;;;;;;;;;;;11.40;78.60;;;;;;5063622;28;19923;-65
2022/07/30 11:01:22;;;;;;;;;;;11.50;78.70;;;;;;5065888;28;19908;-66
2022/07/30 11:04:07;;;;;;;;;;;11.40;78.80;;;;;;5071880;28;20007;-67
2022/07/30 11:06:33;;;;;;;;;;;11.40;78.50;;;;;;5071502;28;19916;-67
2022/07/30 11:09:00;;;;;;;;;;;11.40;78.70;;;;;;5071215;28;19917;-66
2022/07/30 11:11:29;;;;;;;;;;;11.30;78.80;;;;;;5070378;28;19916;-64
2022/07/30 11:13:59;;;;;;;;;;;11.30;78.70;;;;;;5056682;28;19908;-63
2022/07/30 11:16:32;;;;;;;;;;;11.30;78.70;;;;;;5031543;28;19917;-65
2022/07/30 11:19:02;;;;;;;;;;;11.30;78.70;;;;;;5031655;28;19909;-64
2022/07/30 11:21:29;;;;;;;;;;;11.30;78.90;;;;;;5031534;28;20401;-65
2022/07/30 11:23:55;;;;;;;;;;;11.30;79.20;;;;;;5013074;28;19905;-66
2022/07/30 11:26:45;;;;;;;;;;;11.30;79.40;;;;;;5031572;28;19920;-66
2022/07/30 11:29:30;;;;;;;;;;;11.30;79.80;;;;;;5030935;28;20384;-64
2022/07/30 11:31:56;;;;;;;;;;;11.30;80.10;;;;;;5030767;28;20366;-65
2022/07/30 11:34:24;;;;;;;;;;;11.20;80.10;;;;;;5013193;28;20319;-66
2022/07/30 11:37:23;;;;;;;;;;;11.30;80.10;;;;;;5030663;28;20351;-68
2022/07/30 11:39:55;;;;;;;;;;;11.20;80.20;;;;;;4997360;28;19962;-66
2022/07/30 11:42:26;;;;;;;;;;;11.20;79.90;;;;;;5031256;28;19971;-66
2022/07/30 11:44:52;;;;;;;;;;;11.20;79.60;;;;;;5028742;28;19913;-64
2022/07/30 11:47:19;;;;;;;;;;;11.20;79.50;;;;;;5027674;28;19917;-65
2022/07/30 11:49:46;;;;;;;;;;;11.20;79.20;;;;;;5030003;28;19909;-65
2022/07/30 11:52:12;;;;;;;;;;;11.20;79.10;;;;;;5028262;28;20083;-64
2022/07/30 11:54:52;;;;;;;;;;;11.30;78.80;;;;;;5012807;28;19939;-64
2022/07/30 11:57:18;;;;;;;;;;;11.20;78.90;;;;;;5029998;28;20312;-65
2022/07/30 11:59:54;;;;;;;;;;;11.30;78.70;;;;;;5030203;28;19944;-65
2022/07/30 12:02:30;;;;;;;;;;;11.20;78.70;;;;;;5017034;28;19987;-66
2022/07/30 12:04:56;;;;;;;;;;;11.20;78.70;;;;;;5030556;28;19951;-65
2022/07/30 12:07:23;;;;;;;;;;;11.20;78.50;;;;;;5029919;28;19913;-65
2022/07/30 12:09:49;;;;;;;;;;;11.20;78.50;;;;;;5030001;28;19913;-66
2022/07/30 12:12:26;;;;;;;;;;;11.20;78.40;;;;;;5030285;28;19909;-66
2022/07/30 12:14:52;;;;;;;;;;;11.20;78.50;;;;;;5030258;28;20386;-67
2022/07/30 12:17:19;;;;;;;;;;;11.20;78.50;;;;;;5029767;28;19955;-67
2022/07/30 12:19:46;;;;;;;;;;;11.20;78.50;;;;;;5022712;28;20329;-66
2022/07/30 12:22:12;;;;;;;;;;;11.20;78.60;;;;;;5050317;28;19930;-66
2022/07/30 12:24:39;;;;;;;;;;;11.20;78.60;;;;;;5032296;28;19911;-66
2022/07/30 12:27:06;;;;;;;;;;;11.20;78.70;;;;;;5047298;28;19945;-67
2022/07/30 12:29:33;;;;;;;;;;;11.10;78.80;;;;;;5050451;28;19916;-66
2022/07/30 12:32:00;;;;;;;;;;;11.10;79.20;;;;;;5016551;28;19959;-67
2022/07/30 12:34:26;;;;;;;;;;;11.10;79.60;;;;;;5047331;28;20008;-65
2022/07/30 12:36:53;;;;;;;;;;;11.10;79.90;;;;;;5035577;28;20390;-68
2022/07/30 12:39:25;;;;;;;;;;;11.00;80.30;;;;;;5016012;28;20003;-68
2022/07/30 12:41:54;;;;;;;;;;;11.00;80.40;;;;;;5045850;28;19959;-67
2022/07/30 12:44:34;;;;;;;;;;;11.00;80.40;;;;;;5035626;28;19912;-67
2022/07/30 12:47:01;;;;;;;;;;;11.00;80.20;;;;;;5034113;28;19912;-66
2022/07/30 12:49:28;;;;;;;;;;;11.00;80.20;;;;;;5012236;28;19917;-66
2022/07/30 12:51:55;;;;;;;;;;;11.00;80.00;;;;;;5031033;28;19916;-67
2022/07/30 12:54:21;;;;;;;;;;;10.90;80.10;;;;;;5031202;28;19908;-67
2022/07/30 12:56:58;;;;;;;;;;;10.90;80.20;;;;;;5030115;28;19999;-67
2022/07/30 12:59:25;;;;;;;;;;;10.90;80.50;;;;;;5020703;28;19912;-66
2022/07/30 13:01:52;;;;;;;;;;;10.90;80.50;;;;;;5033895;28;20343;-66
2022/07/30 13:04:18;;;;;;;;;;;10.90;80.60;;;;;;5033688;28;19916;-66
2022/07/30 13:07:05;;;;;;;;;;;10.90;80.50;;;;;;5035495;28;19908;-67
2022/07/30 13:09:31;;;;;;;;;;;10.90;80.60;;;;;;5026456;28;20023;-66
2022/07/30 13:11:58;;;;;;;;;;;10.90;80.30;;;;;;5030104;28;19909;-66
2022/07/30 13:14:25;;;;;;;;;;;10.90;80.20;;;;;;5032628;28;19920;-68
2022/07/30 13:16:52;;;;;;;;;;;10.90;80.10;;;;;;5061277;28;20245;-67
2022/07/30 13:19:19;;;;;;;;;;;10.80;80.00;;;;;;5048641;28;19992;-66
2022/07/30 13:21:47;;;;;;;;;;;10.80;80.20;;;;;;5070237;28;19954;-67
2022/07/30 13:24:13;;;;;;;;;;;10.80;79.90;;;;;;5065641;28;19905;-67
2022/07/30 13:26:40;;;;;;;;;;;10.80;80.00;;;;;;5068284;28;20001;-67
2022/07/30 13:29:06;;;;;;;;;;;10.90;80.10;;;;;;5064176;28;19904;-67
2022/07/30 13:31:33;;;;;;;;;;;10.80;79.90;;;;;;5065448;28;19909;-67
2022/07/30 13:33:59;;;;;;;;;;;10.80;79.80;;;;;;5072134;28;20003;-67
2022/07/30 13:36:26;;;;;;;;;;;10.80;79.90;;;;;;5071715;28;19912;-67
2022/07/30 13:38:53;;;;;;;;;;;10.80;79.80;;;;;;5071319;28;19957;-67
2022/07/30 13:41:20;;;;;;;;;;;10.80;79.90;;;;;;5071598;28;19905;-66
2022/07/30 13:43:46;;;;;;;;;;;10.80;79.80;;;;;;5068534;28;19939;-67
2022/07/30 13:46:13;;;;;;;;;;;10.80;79.80;;;;;;5070831;28;19908;-67
2022/07/30 13:48:40;;;;;;;;;;;10.80;80.10;;;;;;5071571;28;19904;-67
2022/07/30 13:51:07;;;;;;;;;;;10.80;80.30;;;;;;5071780;28;20379;-67
2022/07/30 13:53:33;;;;;;;;;;;10.70;80.50;;;;;;5071718;28;19908;-67
2022/07/30 13:56:00;;;;;;;;;;;10.70;80.60;;;;;;5067347;28;19915;-67
2022/07/30 13:58:27;;;;;;;;;;;10.70;80.80;;;;;;5071559;28;20382;-67
2022/07/30 14:00:53;;;;;;;;;;;10.60;80.90;;;;;;5071734;28;19911;-67
2022/07/30 14:03:20;;;;;;;;;;;10.60;80.90;;;;;;5053679;28;19913;-67
2022/07/30 14:05:46;;;;;;;;;;;10.50;81.30;;;;;;5071872;28;19911;-66
2022/07/30 14:08:13;;;;;;;;;;;10.50;81.50;;;;;;5069633;28;19916;-67
2022/07/30 14:10:40;;;;;;;;;;;10.50;81.40;;;;;;5071804;28;19959;-67
2022/07/30 14:13:07;;;;;;;;;;;10.50;81.50;;;;;;5071975;28;19995;-66
2022/07/30 14:15:33;;;;;;;;;;;10.40;81.50;;;;;;5069267;28;20370;-67
2022/07/30 14:18:00;;;;;;;;;;;10.40;81.60;;;;;;5047733;28;19909;-67
2022/07/30 14:20:27;;;;;;;;;;;10.40;81.70;;;;;;5055011;28;19917;-67
2022/07/30 14:22:53;;;;;;;;;;;10.30;81.60;;;;;;5064351;28;20294;-67
2022/07/30 14:25:20;;;;;;;;;;;10.30;81.60;;;;;;5075027;28;20002;-67
2022/07/30 14:27:46;;;;;;;;;;;10.20;81.60;;;;;;5074895;28;20269;-67
2022/07/30 14:30:13;;;;;;;;;;;10.20;82.10;;;;;;5075213;28;19904;-67
2022/07/30 14:32:39;;;;;;;;;;;10.10;81.70;;;;;;5065560;28;19905;-67
2022/07/30 14:35:09;;;;;;;;;;;10.00;81.80;;;;;;5052584;28;20043;-67
2022/07/30 14:37:39;;;;;;;;;;;10.00;82.00;;;;;;5075296;28;19912;-67
2022/07/30 14:40:06;;;;;;;;;;;10.00;81.80;;;;;;5074906;28;19908;-66
2022/07/30 14:42:34;;;;;;;;;;;10.00;81.80;;;;;;5074642;28;19916;-67
2022/07/30 14:45:03;;;;;;;;;;;9.90;81.90;;;;;;5065068;28;19905;-67
2022/07/30 14:47:30;;;;;;;;;;;9.90;81.80;;;;;;5046775;28;20423;-67
2022/07/30 14:49:56;;;;;;;;;;;10.00;81.80;;;;;;5074616;28;19908;-67
2022/07/30 14:52:23;;;;;;;;;;;9.90;81.80;;;;;;5074803;28;19910;-66
2022/07/30 14:54:49;;;;;;;;;;;9.80;81.90;;;;;;5074918;28;19904;-67
2022/07/30 14:57:16;;;;;;;;;;;9.80;82.00;;;;;;5060098;28;19911;-67
2022/07/30 14:59:43;;;;;;;;;;;9.80;82.20;;;;;;5074283;28;19908;-67
2022/07/30 15:02:09;;;;;;;;;;;9.70;82.30;;;;;;5074136;28;19912;-66
2022/07/30 15:04:36;;;;;;;;;;;9.70;82.20;;;;;;5074179;28;19908;-66
2022/07/30 15:07:02;;;;;;;;;;;9.70;82.20;;;;;;5073268;28;20003;-66
2022/07/30 15:09:29;;;;;;;;;;;9.70;82.20;;;;;;5074384;28;19911;-66
2022/07/30 15:11:56;;;;;;;;;;;9.70;82.40;;;;;;5074195;28;20258;-66
2022/07/30 15:14:22;;;;;;;;;;;9.70;82.40;;;;;;5073823;28;19916;-66
2022/07/30 15:16:49;;;;;;;;;;;9.60;82.50;;;;;;5074194;28;20731;-67
2022/07/30 15:19:15;;;;;;;;;;;9.60;82.40;;;;;;5071540;28;20247;-67
2022/07/30 15:21:43;;;;;;;;;;;9.50;83.00;;;;;;5073688;28;19904;-67
2022/07/30 15:24:10;;;;;;;;;;;9.50;83.30;;;;;;5074125;28;20001;-67
2022/07/30 15:26:36;;;;;;;;;;;9.50;83.10;;;;;;5044289;28;19909;-67
2022/07/30 15:29:03;;;;;;;;;;;9.50;83.10;;;;;;5065699;28;19954;-67
2022/07/30 15:31:30;;;;;;;;;;;9.50;83.00;;;;;;5073407;28;19909;-67
2022/07/30 15:33:56;;;;;;;;;;;9.50;83.20;;;;;;5074185;28;19919;-67
2022/07/30 15:36:23;;;;;;;;;;;9.50;83.20;;;;;;5064170;28;20336;-66
2022/07/30 15:38:50;;;;;;;;;;;9.50;83.10;;;;;;5073942;28;19951;-66
2022/07/30 15:41:16;;;;;;;;;;;9.50;83.10;;;;;;5069389;28;19962;-67
2022/07/30 15:43:43;;;;;;;;;;;9.50;83.00;;;;;;5073725;28;19912;-67
2022/07/30 15:46:09;;;;;;;;;;;9.40;83.10;;;;;;5073442;28;19904;-66
2022/07/30 15:48:36;;;;;;;;;;;9.50;83.10;;;;;;5073032;28;20241;-67
2022/07/30 15:51:03;;;;;;;;;;;9.40;83.20;;;;;;5047806;28;20358;-67
2022/07/30 15:53:30;;;;;;;;;;;9.40;83.30;;;;;;5066380;28;20297;-67
2022/07/30 15:55:59;;;;;;;;;;;9.40;83.40;;;;;;5073232;28;20324;-67
2022/07/30 15:58:26;;;;;;;;;;;9.30;83.40;;;;;;5073457;28;20311;-67
2022/07/30 16:00:53;;;;;;;;;;;9.30;83.70;;;;;;5073278;28;20278;-67
2022/07/30 16:03:19;;;;;;;;;;;9.30;83.90;;;;;;5072913;28;20320;-66
2022/07/30 16:05:46;;;;;;;;;;;9.40;83.70;;;;;;5066272;28;19904;-67
2022/07/30 16:08:13;;;;;;;;;;;9.40;83.70;;;;;;5073224;28;19904;-66
2022/07/30 16:10:39;;;;;;;;;;;9.30;83.80;;;;;;5072976;28;19905;-67
2022/07/30 16:13:06;;;;;;;;;;;9.30;83.90;;;;;;5066103;28;19916;-67
2022/07/30 16:15:33;;;;;;;;;;;9.30;83.80;;;;;;5065630;28;19916;-67
2022/07/30 16:18:00;;;;;;;;;;;9.30;83.90;;;;;;5054780;28;19904;-67
2022/07/30 16:20:26;;;;;;;;;;;9.20;84.20;;;;;;5057463;28;19909;-67
2022/07/30 16:22:53;;;;;;;;;;;9.20;84.20;;;;;;5061975;28;19924;-67
2022/07/30 16:25:19;;;;;;;;;;;9.20;84.50;;;;;;5071311;28;19912;-67
2022/07/30 16:27:46;;;;;;;;;;;9.20;84.30;;;;;;5073029;28;20285;-66
2022/07/30 16:30:12;;;;;;;;;;;9.20;84.40;;;;;;5072937;28;20336;-67
2022/07/30 16:32:39;;;;;;;;;;;9.20;84.50;;;;;;5069123;28;19915;-67
2022/07/30 16:35:06;;;;;;;;;;;9.20;84.40;;;;;;5065226;28;20308;-67
2022/07/30 16:37:32;;;;;;;;;;;9.10;84.40;;;;;;5064423;28;20007;-67
2022/07/30 16:39:59;;;;;;;;;;;9.10;84.70;;;;;;5072387;28;19950;-66
2022/07/30 16:42:25;;;;;;;;;;;9.10;85.00;;;;;;5071572;28;19916;-67
2022/07/30 16:44:52;;;;;;;;;;;9.10;84.90;;;;;;5072304;28;19926;-67
2022/07/30 16:47:18;;;;;;;;;;;9.00;85.00;;;;;;5068097;28;20262;-67
2022/07/30 16:49:45;;;;;;;;;;;9.00;85.00;;;;;;5072543;28;19904;-66
2022/07/30 16:52:12;;;;;;;;;;;8.90;85.20;;;;;;5072548;28;19911;-67
2022/07/30 16:54:38;;;;;;;;;;;8.90;85.40;;;;;;5072314;28;19995;-67
2022/07/30 16:57:05;;;;;;;;;;;8.90;85.70;;;;;;5072157;28;19905;-67
2022/07/30 16:59:31;;;;;;;;;;;9.00;85.80;;;;;;5065806;28;19962;-67
2022/07/30 17:01:58;;;;;;;;;;;9.00;85.60;;;;;;5068123;28;20000;-67